createdAt,value
2023-03-02T01:35:19.192Z,27.76
2023-03-02T02:01:18.240Z,26.68
2023-03-02T02:12:17.719Z,25.25
2023-03-02T02:13:17.752Z,25.34
2023-03-02T02:14:17.804Z,26.13
2023-03-02T02:15:17.825Z,27.71
2023-03-02T02:16:17.871Z,26.36
2023-03-02T02:17:17.896Z,26.66
2023-03-02T02:18:17.936Z,26.86
2023-03-02T02:19:17.970Z,27.55
2023-03-02T02:20:18.012Z,26.53
2023-03-02T02:21:18.042Z,27.33
2023-03-02T02:22:18.083Z,25.00
2023-03-02T02:23:18.119Z,27.46
2023-03-02T02:24:18.156Z,27.76
2023-03-02T02:25:18.185Z,27.81
2023-03-02T02:26:18.379Z,28.34
2023-03-02T02:27:18.324Z,27.22
2023-03-02T02:28:18.285Z,26.66
2023-03-02T02:29:18.317Z,27.43
2023-03-02T02:30:18.355Z,26.04
2023-03-02T02:31:18.404Z,26.62
2023-03-02T02:32:18.543Z,27.11
2023-03-02T02:33:18.534Z,26.21
2023-03-02T02:34:18.606Z,27.77
2023-03-02T02:35:18.766Z,26.11
2023-03-02T02:36:18.773Z,27.31
2023-03-02T02:37:18.849Z,28.15
2023-03-02T02:38:18.920Z,27.46
2023-03-02T02:39:19.008Z,25.86
2023-03-02T02:40:19.070Z,27.61
2023-03-02T02:41:19.144Z,28.15
2023-03-02T02:42:19.226Z,28.95
2023-03-02T02:44:19.310Z,26.51
2023-03-02T02:45:19.336Z,26.52
2023-03-02T02:46:19.409Z,29.20
2023-03-02T02:47:19.404Z,28.60
2023-03-02T05:03:27.723Z,26.71
2023-03-02T05:04:27.909Z,25.38
2023-03-02T05:05:27.933Z,26.62
2023-03-02T05:06:27.994Z,25.41
2023-03-02T05:07:28.087Z,26.07
2023-03-02T05:08:28.169Z,27.01
2023-03-02T05:09:28.258Z,25.98
2023-03-02T05:10:28.369Z,26.71
2023-03-02T05:11:28.444Z,27.01
2023-03-02T05:12:28.536Z,27.12
2023-03-02T05:13:28.616Z,25.93
2023-03-02T05:14:28.717Z,27.61
2023-03-02T05:15:28.793Z,25.88
2023-03-02T05:16:29.552Z,25.98
2023-03-02T05:17:28.971Z,26.31
2023-03-02T05:18:29.050Z,25.89
2023-03-02T05:19:29.133Z,26.15
2023-03-02T05:20:29.223Z,26.07
2023-03-02T05:21:29.303Z,26.70
2023-03-02T05:22:29.385Z,26.84
2023-03-02T05:23:29.470Z,26.06
2023-03-02T05:24:29.573Z,25.83
2023-03-02T05:25:29.663Z,25.83
2023-03-02T05:26:29.786Z,26.90
2023-03-02T05:27:29.832Z,25.81
2023-03-02T05:28:29.933Z,26.14
2023-03-02T05:29:30.028Z,25.50
2023-03-02T05:30:30.107Z,27.10
2023-03-02T07:11:38.287Z,250.11
2023-03-02T07:16:37.790Z,248.53
2023-03-02T07:17:37.821Z,250.00
2023-03-02T07:18:37.903Z,249.36
2023-03-02T07:19:40.351Z,250.38
2023-03-02T07:20:37.960Z,214.00
2023-03-02T07:21:38.020Z,179.80
2023-03-02T07:22:38.819Z,172.07
2023-03-02T07:23:38.092Z,168.61
2023-03-02T07:24:38.136Z,163.89
2023-03-02T07:25:38.178Z,145.45
2023-03-02T07:26:38.315Z,138.51
2023-03-02T07:27:38.279Z,131.90
2023-03-02T07:28:38.317Z,129.97
2023-03-02T07:29:39.228Z,128.92
2023-03-02T07:30:38.510Z,129.07
2023-03-02T07:31:39.299Z,131.14
2023-03-02T07:32:38.492Z,133.52
2023-03-02T07:33:38.488Z,134.25
2023-03-02T07:34:38.506Z,135.86
2023-03-02T07:35:38.594Z,138.42
2023-03-02T07:36:38.568Z,138.77
2023-03-02T07:37:38.665Z,142.84
2023-03-02T07:38:38.619Z,140.01
2023-03-02T07:39:38.625Z,140.97
2023-03-02T07:40:38.719Z,143.32
2023-03-02T07:41:38.662Z,147.72
2023-03-02T07:42:38.670Z,149.22
2023-03-02T07:43:38.691Z,150.43
2023-03-02T07:44:38.703Z,152.72
2023-03-02T07:45:38.715Z,154.60
2023-03-02T07:46:38.776Z,157.65
2023-03-02T07:47:38.825Z,159.73
2023-03-02T07:48:38.754Z,161.66
2023-03-02T07:49:38.837Z,163.10
2023-03-02T07:50:38.781Z,163.59
2023-03-02T07:51:38.851Z,125.82
2023-03-02T07:52:38.832Z,88.87
2023-03-02T07:53:38.826Z,74.29
2023-03-02T07:54:38.883Z,53.17
2023-03-02T07:55:39.813Z,37.37
2023-03-02T07:56:38.944Z,32.06
2023-03-02T07:57:38.985Z,31.78
2023-03-02T07:58:39.039Z,32.45
2023-03-02T07:59:39.067Z,32.32
2023-03-02T08:00:41.197Z,34.09
2023-03-02T08:01:39.183Z,42.31
2023-03-02T08:02:39.191Z,46.12
2023-03-02T08:03:39.206Z,47.97
2023-03-02T08:04:39.232Z,52.03
2023-03-02T08:05:39.276Z,56.79
2023-03-02T08:06:42.215Z,60.23
2023-03-02T08:07:39.347Z,60.47
2023-03-02T08:08:39.331Z,61.13
2023-03-02T08:09:39.345Z,63.69
2023-03-02T08:10:39.366Z,68.46
2023-03-02T08:11:39.438Z,77.07
2023-03-02T08:12:39.399Z,80.60
2023-03-02T08:13:39.430Z,83.00
2023-03-02T08:14:39.438Z,87.26
2023-03-02T08:15:39.472Z,92.74
2023-03-02T08:16:39.530Z,97.81
2023-03-02T08:17:39.485Z,104.20
2023-03-02T08:18:39.526Z,114.17
2023-03-02T08:19:39.483Z,116.30
2023-03-02T08:20:39.512Z,119.84
2023-03-02T08:21:39.545Z,122.00
2023-03-02T08:22:40.333Z,125.19
2023-03-02T08:23:39.554Z,125.40
2023-03-02T08:24:39.523Z,114.34
2023-03-02T08:25:39.533Z,99.88
2023-03-02T08:26:39.545Z,85.92
2023-03-02T08:27:39.564Z,77.09
2023-03-02T08:28:39.572Z,68.32
2023-03-02T08:29:39.653Z,62.20
2023-03-02T08:30:39.613Z,54.14
2023-03-02T08:31:39.644Z,48.31
2023-03-02T08:32:40.758Z,47.54
2023-03-02T08:33:39.665Z,36.73
2023-03-02T08:34:39.676Z,30.77
2023-03-02T08:35:39.731Z,24.34
2023-03-02T08:36:39.732Z,19.76
2023-03-02T08:37:39.764Z,25.00
2023-03-02T08:38:39.778Z,28.75
2023-03-02T09:00:40.375Z,122.82
2023-03-02T10:12:43.534Z,163.76
2023-03-02T10:14:43.567Z,167.18
2023-03-02T10:15:43.724Z,170.64
2023-03-02T10:16:43.562Z,172.41
2023-03-02T10:17:43.569Z,174.90
2023-03-02T10:18:43.560Z,174.90
2023-03-02T10:20:44.294Z,179.93
2023-03-02T10:21:43.587Z,182.15
2023-03-02T10:22:43.592Z,184.88
2023-03-02T10:23:43.647Z,188.23
2023-03-02T10:24:43.602Z,191.20
2023-03-02T10:26:43.620Z,197.53
2023-03-02T10:27:43.667Z,201.42
2023-03-02T10:29:43.923Z,206.84
2023-03-02T10:30:43.671Z,209.41
2023-03-02T10:31:43.664Z,212.00
2023-03-02T10:32:43.661Z,216.19
2023-03-02T10:33:43.675Z,217.69
2023-03-02T10:34:43.665Z,219.83
2023-03-02T10:35:43.704Z,222.30
2023-03-02T10:36:43.693Z,226.41
2023-03-02T10:37:43.716Z,228.58
2023-03-02T10:41:43.747Z,239.12
2023-03-02T10:42:43.722Z,247.64
2023-03-02T10:43:43.728Z,243.26
2023-03-02T10:44:43.780Z,243.10
2023-03-02T10:46:43.876Z,245.53
2023-03-02T10:47:43.808Z,249.00
2023-03-02T12:06:47.739Z,213.09
2023-03-02T12:07:47.809Z,197.19
2023-03-02T12:08:47.975Z,164.09
2023-03-02T12:09:47.915Z,143.03
2023-03-02T12:10:48.836Z,126.14
2023-03-02T12:11:47.943Z,119.08
2023-03-02T12:12:47.996Z,112.66
2023-03-02T12:13:48.018Z,117.04
2023-03-02T12:14:48.057Z,120.19
2023-03-02T12:15:48.096Z,124.77
2023-03-02T12:16:48.243Z,128.29
2023-03-02T12:17:48.140Z,136.36
2023-03-02T12:18:48.153Z,128.54
2023-03-02T12:19:48.168Z,118.68
2023-03-02T12:20:48.195Z,122.08
2023-03-02T12:21:48.234Z,120.02
2023-03-02T12:22:48.297Z,125.65
2023-03-02T12:23:48.355Z,130.05
2023-03-02T12:24:48.440Z,129.72
2023-03-02T12:25:48.528Z,131.35
2023-03-02T12:26:48.632Z,133.25
2023-03-02T12:27:48.707Z,132.43
2023-03-02T12:28:48.777Z,132.67
2023-03-02T12:29:48.861Z,134.95
2023-03-02T12:30:48.946Z,133.54
2023-03-02T12:31:49.093Z,130.74
2023-03-02T12:32:49.099Z,130.75
2023-03-02T12:33:49.200Z,132.40
2023-03-02T12:34:49.250Z,130.47
2023-03-02T12:35:49.312Z,117.27
2023-03-02T12:36:49.403Z,118.98
2023-03-02T12:37:49.467Z,122.80
2023-03-02T12:38:49.538Z,114.07
2023-03-02T12:39:49.614Z,116.08
2023-03-02T12:40:49.694Z,119.52
2023-03-02T12:41:49.831Z,118.41
2023-03-02T12:42:49.929Z,123.10
2023-03-02T12:43:50.481Z,118.00
2023-03-02T12:44:50.087Z,120.73
2023-03-02T12:45:50.130Z,116.07
2023-03-02T12:46:50.171Z,116.58
2023-03-02T12:47:50.532Z,117.37
2023-03-02T12:48:50.650Z,120.73
2023-03-02T12:49:50.413Z,112.80
2023-03-02T12:50:50.494Z,110.08
2023-03-02T12:51:50.699Z,105.01
2023-03-02T12:52:50.647Z,110.93
2023-03-02T12:53:50.725Z,113.40
2023-03-02T12:54:50.797Z,110.00
2023-03-02T12:55:50.985Z,111.99
2023-03-02T12:56:50.930Z,111.94
2023-03-02T12:57:51.023Z,117.07
2023-03-02T12:58:51.441Z,118.02
2023-03-02T12:59:51.147Z,113.61
2023-03-02T13:00:51.249Z,106.46
2023-03-02T13:01:51.283Z,109.62
2023-03-02T13:02:51.439Z,112.76
2023-03-02T13:03:51.477Z,110.42
2023-03-02T13:04:51.498Z,108.62
2023-03-02T13:05:51.560Z,111.41
2023-03-02T13:06:51.732Z,111.75
2023-03-02T13:07:51.727Z,107.32
2023-03-02T13:08:51.852Z,97.39
2023-03-02T13:09:56.506Z,99.36
2023-03-02T13:10:52.835Z,99.52
2023-03-02T13:11:51.842Z,100.39
2023-03-02T13:12:51.851Z,101.73
2023-03-02T13:13:51.919Z,104.31
2023-03-02T13:14:51.954Z,110.93
2023-03-02T13:15:51.877Z,112.29
2023-03-02T13:16:51.998Z,114.29
2023-03-02T13:17:51.958Z,113.12
2023-03-02T13:18:51.919Z,111.72
2023-03-02T13:19:51.945Z,111.57
2023-03-02T13:20:52.031Z,113.40
2023-03-02T13:21:52.089Z,114.15
2023-03-02T13:22:52.161Z,110.64
2023-03-02T13:23:52.231Z,111.17
2023-03-02T13:24:52.309Z,106.70
2023-03-02T13:25:52.401Z,105.56
2023-03-02T13:26:52.458Z,106.61
2023-03-02T13:27:52.555Z,105.24
2023-03-02T13:28:52.616Z,103.97
2023-03-02T13:29:52.720Z,104.03
2023-03-02T13:30:52.834Z,100.61
2023-03-02T13:31:52.849Z,93.82
2023-03-02T13:32:52.975Z,89.75
2023-03-02T13:33:52.998Z,93.21
2023-03-02T13:34:53.049Z,98.77
2023-03-02T13:35:53.115Z,92.50
2023-03-02T13:36:53.188Z,97.22
2023-03-02T14:36:57.729Z,118.17
2023-03-02T14:37:57.759Z,117.70
2023-03-02T14:38:57.809Z,116.61
2023-03-02T14:39:57.880Z,117.30
2023-03-02T14:40:58.608Z,118.59
2023-03-02T14:41:58.474Z,117.48
2023-03-02T14:42:58.054Z,117.81
2023-03-02T14:43:58.107Z,117.00
2023-03-02T14:44:59.762Z,116.68
2023-03-02T14:45:58.245Z,118.86
2023-03-02T14:46:58.242Z,119.55
2023-03-02T14:47:58.279Z,118.16
2023-03-02T14:48:58.350Z,117.82
2023-03-02T14:49:58.429Z,117.16
2023-03-02T14:54:58.551Z,118.97
2023-03-02T14:55:58.636Z,119.46
2023-03-02T14:56:58.645Z,118.42
2023-03-02T14:58:58.727Z,118.58
2023-03-02T14:59:58.780Z,117.90
2023-03-02T15:00:58.823Z,118.76
2023-03-02T15:02:04.004Z,118.43
2023-03-02T15:03:58.905Z,118.69
2023-03-02T15:04:58.901Z,118.24
2023-03-02T15:06:01.765Z,119.44
2023-03-02T15:06:58.935Z,120.79
2023-03-02T15:07:59.054Z,120.62
2023-03-02T15:08:58.979Z,120.00
2023-03-02T15:09:59.008Z,120.33
2023-03-02T15:10:59.048Z,119.82
2023-03-02T15:11:59.058Z,119.13
2023-03-02T15:12:59.074Z,118.74
2023-03-02T15:13:59.087Z,118.46
2023-03-02T15:14:59.114Z,119.26
2023-03-02T15:15:59.135Z,119.77
2023-03-02T15:16:59.197Z,119.64
2023-03-02T15:17:59.143Z,119.38
2023-03-02T15:18:59.251Z,118.16
2023-03-02T15:19:59.169Z,117.64
2023-03-02T15:20:59.188Z,118.90
2023-03-02T15:21:59.224Z,117.65
2023-03-02T15:22:59.215Z,118.74
2023-03-02T15:24:00.027Z,119.52
2023-03-02T15:24:59.390Z,120.23
2023-03-02T15:25:59.284Z,119.86
2023-03-02T15:26:59.298Z,120.49
2023-03-02T15:27:59.344Z,119.70
2023-03-02T15:28:59.320Z,118.90
2023-03-02T15:29:59.332Z,118.46
2023-03-02T15:30:59.349Z,119.17
2023-03-02T15:31:59.449Z,119.10
2023-03-02T15:32:59.395Z,118.66
2023-03-02T15:33:59.403Z,118.40
2023-03-02T15:34:59.420Z,120.34
2023-03-02T15:35:59.470Z,120.24
2023-03-02T15:36:59.992Z,118.05
2023-03-02T15:37:59.472Z,119.27
2023-03-02T15:38:59.490Z,120.26
2023-03-02T15:39:59.507Z,121.71
2023-03-02T15:40:59.522Z,121.73
2023-03-02T15:41:59.536Z,122.76
2023-03-02T15:42:59.555Z,122.37
2023-03-02T15:43:59.583Z,122.97
2023-03-02T15:44:59.606Z,123.03
2023-03-02T15:45:59.615Z,123.77
2023-03-02T15:46:59.643Z,123.17
2023-03-02T15:47:59.658Z,124.22
2023-03-02T15:48:59.677Z,124.27
2023-03-02T15:49:59.696Z,124.34
2023-03-02T15:50:59.723Z,125.42
2023-03-02T15:51:59.767Z,125.10
2023-03-02T15:52:59.769Z,124.55
2023-03-02T15:53:59.765Z,124.79
2023-03-02T15:54:59.820Z,125.88
2023-03-02T15:55:59.809Z,124.08
2023-03-02T15:56:59.807Z,125.02
2023-03-02T15:57:59.844Z,125.22
2023-03-02T15:58:59.841Z,125.64
2023-03-02T15:59:59.862Z,125.88
2023-03-02T16:00:59.936Z,126.53
2023-03-02T16:01:59.945Z,126.41
2023-03-02T16:02:59.977Z,125.94
2023-03-02T16:04:00.046Z,125.80
2023-03-02T16:04:59.933Z,126.97
2023-03-02T16:05:59.955Z,127.47
2023-03-02T16:06:59.978Z,125.71
2023-03-02T16:08:00.013Z,126.53
2023-03-02T16:09:00.122Z,125.85
2023-03-02T16:10:00.060Z,127.21
2023-03-02T16:11:00.143Z,126.55
2023-03-02T16:12:00.139Z,127.67
2023-03-02T16:13:00.126Z,127.41
2023-03-02T16:14:00.142Z,127.60
2023-03-02T16:15:00.191Z,127.88
2023-03-02T16:16:00.155Z,128.00
2023-03-02T16:17:00.184Z,128.67
2023-03-02T16:18:00.205Z,127.55
2023-03-02T16:19:00.238Z,128.52
2023-03-02T16:20:00.251Z,127.69
2023-03-02T16:21:00.275Z,128.68
2023-03-02T16:22:00.279Z,129.38
2023-03-02T16:23:00.296Z,128.95
2023-03-02T16:24:00.316Z,128.65
2023-03-02T16:25:00.331Z,128.14
2023-03-02T16:26:00.336Z,129.21
2023-03-02T16:27:00.365Z,128.40
2023-03-02T16:28:00.376Z,128.14
2023-03-02T16:29:00.414Z,128.11
2023-03-02T16:30:00.420Z,128.54
2023-03-02T16:31:00.442Z,129.88
2023-03-02T16:32:00.570Z,128.18
2023-03-02T16:33:00.463Z,128.59
2023-03-02T16:34:00.475Z,128.30
2023-03-02T16:35:00.500Z,126.73
2023-03-02T16:36:00.518Z,128.79
2023-03-02T16:37:00.528Z,128.87
2023-03-02T16:38:00.640Z,127.81
2023-03-02T16:39:00.587Z,129.15
2023-03-02T16:40:01.601Z,128.06
2023-03-02T16:41:00.597Z,128.74
2023-03-02T16:42:00.607Z,128.69
2023-03-02T16:43:00.658Z,128.87
2023-03-02T16:44:00.657Z,127.46
2023-03-02T16:45:01.041Z,128.15
2023-03-02T16:46:00.724Z,128.50
2023-03-02T16:47:00.706Z,128.69
2023-03-02T16:48:00.744Z,127.88
2023-03-02T16:49:00.743Z,129.67
2023-03-02T16:50:00.787Z,127.83
2023-03-02T16:51:00.857Z,128.24
2023-03-02T16:52:00.906Z,128.98
2023-03-02T16:53:00.953Z,128.87
2023-03-02T16:54:01.004Z,129.18
2023-03-02T16:55:01.072Z,128.82
2023-03-02T16:56:01.107Z,127.68
2023-03-02T16:57:01.178Z,126.89
2023-03-02T16:58:01.236Z,129.74
2023-03-02T16:59:01.274Z,127.38
2023-03-02T17:00:01.367Z,127.04
2023-03-02T18:29:07.726Z,117.61
2023-03-02T18:30:07.808Z,117.05
2023-03-02T18:31:07.947Z,116.85
2023-03-02T18:32:08.052Z,116.64
2023-03-02T18:33:08.082Z,116.86
2023-03-02T18:34:08.168Z,116.58
2023-03-02T18:35:08.273Z,116.80
2023-03-02T18:36:08.354Z,116.68
2023-03-02T18:37:08.501Z,116.60
2023-03-02T18:38:08.550Z,115.69
2023-03-02T18:39:08.623Z,115.73
2023-03-02T18:40:08.705Z,115.65
2023-03-02T18:41:08.882Z,116.14
2023-03-02T18:42:09.866Z,115.50
2023-03-02T18:43:08.987Z,115.97
2023-03-02T18:44:09.071Z,116.01
2023-03-02T18:45:09.169Z,115.02
2023-03-02T18:46:09.298Z,114.97
2023-03-02T18:47:09.351Z,115.16
2023-03-02T18:48:09.444Z,115.26
2023-03-02T18:49:09.536Z,114.85
2023-03-02T18:50:09.631Z,114.74
2023-03-02T18:51:09.741Z,114.61
2023-03-02T18:52:09.816Z,115.23
2023-03-02T18:53:12.449Z,114.65
2023-03-02T18:54:09.919Z,115.25
2023-03-02T18:55:09.941Z,115.47
2023-03-02T18:57:10.012Z,115.44
2023-03-02T18:58:10.024Z,113.73
2023-03-02T18:59:10.058Z,113.51
2023-03-02T19:00:10.078Z,113.60
2023-03-02T19:01:10.139Z,113.16
2023-03-02T19:02:10.279Z,113.35
2023-03-02T19:03:10.158Z,113.60
2023-03-02T19:04:10.182Z,112.74
2023-03-02T19:05:10.208Z,112.62
2023-03-02T19:06:10.216Z,112.33
2023-03-02T19:07:10.250Z,112.74
2023-03-02T19:08:10.270Z,113.06
2023-03-02T19:09:10.313Z,113.32
2023-03-02T19:10:10.350Z,112.69
2023-03-02T19:11:10.338Z,112.57
2023-03-02T19:12:10.353Z,112.69
2023-03-02T19:13:10.391Z,112.87
2023-03-02T19:14:10.399Z,112.75
2023-03-02T19:15:10.627Z,112.83
2023-03-02T19:16:10.512Z,113.49
2023-03-02T19:17:10.446Z,112.01
2023-03-02T19:18:10.487Z,112.48
2023-03-02T19:19:10.502Z,112.12
2023-03-02T19:20:10.533Z,111.42
2023-03-02T19:21:10.564Z,111.79
2023-03-02T19:22:10.577Z,111.24
2023-03-02T19:44:11.952Z,110.32
2023-03-02T19:46:12.178Z,108.93
2023-03-02T19:48:12.347Z,109.37
2023-03-02T19:49:12.432Z,109.29
2023-03-02T19:50:12.543Z,109.06
2023-03-02T19:51:12.634Z,108.32
2023-03-02T19:52:12.720Z,108.01
2023-03-02T19:53:12.813Z,108.37
2023-03-02T19:54:12.917Z,108.48
2023-03-02T19:55:13.015Z,107.40
2023-03-02T19:56:13.170Z,107.47
2023-03-02T19:57:13.224Z,108.58
2023-03-02T19:58:13.316Z,107.76
2023-03-02T19:59:13.402Z,107.07
2023-03-02T20:00:13.522Z,107.99
2023-03-02T20:01:13.637Z,107.51
2023-03-02T20:02:13.716Z,107.83
2023-03-02T20:03:13.791Z,107.81
2023-03-02T20:04:13.870Z,107.60
2023-03-02T20:05:13.995Z,106.43
2023-03-02T20:06:14.107Z,106.46
2023-03-02T20:07:14.163Z,107.09
2023-03-02T20:08:14.261Z,106.01
2023-03-02T20:09:14.360Z,106.97
2023-03-02T20:11:14.552Z,106.20
2023-03-02T20:12:14.671Z,106.47
2023-03-02T20:13:14.751Z,106.75
2023-03-02T20:15:14.909Z,106.44
2023-03-02T20:16:15.044Z,106.12
2023-03-02T20:17:15.107Z,105.92
2023-03-02T20:18:15.209Z,105.87
2023-03-02T20:45:17.803Z,102.70
2023-03-02T20:46:17.926Z,103.50
2023-03-02T20:47:17.974Z,102.10
2023-03-02T20:48:18.064Z,102.39
2023-03-02T20:49:18.149Z,102.58
2023-03-02T20:50:18.242Z,102.51
2023-03-02T20:51:18.341Z,103.18
2023-03-02T20:52:18.444Z,102.67
2023-03-02T20:53:18.531Z,102.44
2023-03-02T20:54:18.625Z,102.51
2023-03-02T20:55:18.749Z,101.92
2023-03-02T20:56:18.799Z,101.99
2023-03-02T20:57:18.899Z,100.96
2023-03-02T20:58:18.979Z,101.52
2023-03-02T20:59:19.072Z,101.28
2023-03-02T21:00:19.203Z,100.59
2023-03-02T21:01:19.304Z,100.77
2023-03-02T21:02:19.340Z,101.18
2023-03-02T21:03:19.486Z,101.26
2023-03-02T21:04:19.567Z,100.67
2023-03-02T21:05:19.617Z,101.04
2023-03-02T21:06:19.705Z,100.22
2023-03-02T21:07:19.812Z,100.94
2023-03-02T21:08:19.904Z,100.99
2023-03-02T21:09:19.998Z,100.70
2023-03-02T21:10:20.627Z,100.34
2023-03-02T21:11:20.207Z,100.47
2023-03-02T21:12:20.340Z,100.81
2023-03-02T21:13:20.426Z,100.10
2023-03-02T21:14:20.510Z,101.55
2023-03-02T21:15:20.594Z,100.95
2023-03-02T21:16:20.684Z,100.33
2023-03-02T21:17:20.842Z,99.98
2023-03-02T21:18:20.879Z,99.63
2023-03-02T21:19:20.980Z,100.27
2023-03-02T21:20:21.078Z,99.67
2023-03-02T21:21:29.708Z,100.04
2023-03-02T21:22:22.202Z,100.12
2023-03-02T21:23:21.217Z,100.27
2023-03-02T21:24:21.245Z,99.94
2023-03-02T21:25:21.263Z,99.14
2023-03-02T21:26:21.328Z,99.89
2023-03-02T21:27:21.329Z,99.99
2023-03-02T21:28:21.354Z,100.17
2023-03-02T21:29:21.381Z,100.11
2023-03-02T21:30:21.420Z,98.37
2023-03-02T21:31:21.540Z,98.11
2023-03-02T21:32:21.661Z,98.17
2023-03-02T21:33:21.683Z,99.13
2023-03-02T21:34:21.816Z,98.20
2023-03-02T21:35:21.858Z,97.79
2023-03-02T21:36:21.948Z,98.64
2023-03-02T21:37:22.015Z,96.78
2023-03-02T21:38:22.104Z,97.75
2023-03-02T21:39:22.192Z,97.17
2023-03-02T21:40:22.285Z,97.17
2023-03-02T21:41:22.377Z,98.75
2023-03-02T21:42:22.489Z,97.96
2023-03-02T21:43:22.568Z,97.09
2023-03-02T21:44:22.665Z,98.30
2023-03-02T21:45:22.762Z,97.49
2023-03-02T21:46:22.889Z,97.68
2023-03-02T21:47:22.941Z,96.07
2023-03-02T21:48:23.196Z,96.73
2023-03-02T21:49:23.149Z,96.76
2023-03-02T21:50:23.219Z,96.28
2023-03-02T21:51:23.335Z,96.51
2023-03-02T21:52:23.413Z,95.36
2023-03-02T21:53:23.506Z,96.08
2023-03-02T21:54:23.573Z,95.26
2023-03-02T21:55:23.644Z,95.75
2023-03-02T21:56:23.705Z,94.90
2023-03-02T21:57:23.752Z,95.49
2023-03-02T21:58:23.820Z,95.34
2023-03-02T21:59:23.909Z,95.41
2023-03-02T22:00:23.971Z,95.39
2023-03-02T22:01:24.085Z,95.43
2023-03-02T22:02:24.115Z,94.68
2023-03-02T22:03:24.195Z,95.75
2023-03-02T22:04:24.315Z,94.79
2023-03-02T22:05:24.371Z,95.02
2023-03-02T22:06:24.464Z,95.01
2023-03-02T22:07:24.568Z,93.90
2023-03-02T22:08:24.656Z,94.58
2023-03-02T22:09:24.758Z,94.17
2023-03-02T22:10:24.859Z,95.10
2023-03-02T22:11:24.959Z,95.37
2023-03-02T22:12:25.066Z,93.84
2023-03-02T22:13:25.171Z,94.14
2023-03-02T22:14:25.286Z,94.29
2023-03-02T22:15:25.390Z,93.36
2023-03-02T22:16:25.545Z,92.59
2023-03-02T22:17:25.594Z,94.06
2023-03-02T22:18:25.724Z,93.64
2023-03-02T22:19:25.816Z,93.39
2023-03-02T22:20:25.890Z,93.31
2023-03-02T22:21:25.971Z,93.51
2023-03-02T22:22:26.057Z,93.67
2023-03-02T22:23:26.142Z,93.87
2023-03-02T22:24:26.211Z,93.12
2023-03-02T22:25:26.258Z,93.25
2023-03-02T22:26:26.335Z,92.34
2023-03-02T22:27:26.402Z,92.58
2023-03-02T22:28:26.566Z,92.91
2023-03-02T22:29:26.544Z,92.25
2023-03-02T22:30:26.593Z,93.06
2023-03-02T22:31:26.681Z,93.23
2023-03-02T22:32:26.731Z,91.97
2023-03-02T22:33:26.785Z,92.53
2023-03-02T22:34:26.861Z,92.43
2023-03-02T22:35:26.999Z,91.86
2023-03-02T22:36:26.972Z,91.69
2023-03-02T22:37:27.063Z,92.46
2023-03-02T22:38:27.647Z,91.82
2023-03-02T22:39:27.178Z,91.23
2023-03-02T22:40:27.259Z,91.03
2023-03-02T22:41:27.385Z,90.69
2023-03-02T22:42:27.426Z,92.45
2023-03-02T22:43:28.209Z,91.82
2023-03-02T22:44:27.594Z,92.14
2023-03-02T22:45:27.688Z,91.70
2023-03-02T22:46:27.776Z,91.25
2023-03-02T22:47:27.832Z,90.11
2023-03-02T22:48:27.912Z,90.59
2023-03-02T22:49:27.997Z,90.73
2023-03-02T22:50:28.089Z,91.54
2023-03-02T22:51:28.159Z,90.06
2023-03-02T22:52:28.295Z,91.23
2023-03-02T22:53:28.306Z,90.71
2023-03-02T22:54:28.391Z,90.68
2023-03-02T22:55:28.438Z,89.22
2023-03-02T22:56:28.502Z,89.06
2023-03-02T22:57:28.588Z,89.06
2023-03-02T22:58:28.650Z,89.53
2023-03-02T22:59:28.791Z,89.28
2023-03-02T23:00:28.821Z,90.26
2023-03-02T23:01:28.969Z,89.39
2023-03-02T23:02:28.990Z,89.30
2023-03-02T23:03:29.066Z,89.53
2023-03-02T23:04:29.164Z,88.68
2023-03-02T23:05:29.207Z,88.19
2023-03-02T23:06:29.304Z,88.63
2023-03-02T23:07:29.393Z,88.64
2023-03-02T23:08:29.445Z,88.68
2023-03-02T23:09:29.546Z,89.42
2023-03-02T23:10:29.622Z,88.84
2023-03-02T23:11:29.685Z,89.21
2023-03-02T23:12:29.739Z,89.30
2023-03-02T23:13:29.844Z,89.10
2023-03-02T23:14:29.888Z,89.05
2023-03-02T23:15:29.971Z,88.04
2023-03-02T23:16:30.146Z,87.98
2023-03-02T23:17:30.151Z,88.76
2023-03-02T23:18:30.234Z,88.46
2023-03-02T23:19:30.317Z,87.74
2023-03-02T23:20:30.381Z,87.51
2023-03-02T23:21:30.449Z,87.31
2023-03-02T23:22:30.506Z,88.27
2023-03-02T23:23:30.582Z,87.31
2023-03-02T23:24:30.692Z,86.68
2023-03-02T23:25:30.784Z,87.10
2023-03-02T23:26:30.900Z,86.70
2023-03-02T23:27:30.962Z,86.43
2023-03-02T23:28:31.028Z,86.31
2023-03-02T23:29:31.091Z,86.82
2023-03-02T23:30:31.146Z,87.11
2023-03-02T23:31:31.256Z,86.00
2023-03-02T23:32:31.306Z,86.42
2023-03-02T23:33:31.366Z,86.66
2023-03-02T23:34:31.461Z,85.48
2023-03-02T23:35:31.540Z,84.19
2023-03-02T23:36:31.591Z,86.07
2023-03-02T23:37:32.181Z,85.53
2023-03-02T23:38:31.725Z,86.15
2023-03-02T23:39:31.791Z,84.84
2023-03-02T23:40:31.859Z,85.67
2023-03-02T23:41:32.034Z,85.55
2023-03-02T23:42:31.999Z,84.83
2023-03-02T23:43:32.092Z,85.17
2023-03-02T23:44:32.172Z,85.79
2023-03-02T23:45:32.323Z,84.59
2023-03-02T23:46:32.686Z,84.48
2023-03-02T23:47:32.403Z,85.28
2023-03-02T23:48:32.549Z,84.60
2023-03-02T23:49:33.304Z,85.13
2023-03-02T23:50:32.642Z,83.57
2023-03-02T23:51:32.732Z,84.70
2023-03-02T23:52:32.820Z,83.58
2023-03-02T23:53:33.679Z,82.81
2023-03-02T23:54:32.950Z,83.13
2023-03-02T23:55:33.105Z,83.29
2023-03-02T23:56:33.682Z,83.45
2023-03-02T23:57:33.170Z,82.96
2023-03-02T23:58:33.233Z,82.02
2023-03-02T23:59:33.316Z,82.64
